createdAt,value
2022-09-23T00:01:21.480Z,101204.00
2022-09-23T00:03:50.498Z,101196.53
2022-09-23T00:06:20.387Z,101199.28
2022-09-23T00:08:49.806Z,101199.28
2022-09-23T00:11:22.745Z,101202.03
2022-09-23T00:13:53.330Z,101194.91
2022-09-23T00:16:28.661Z,101203.56
2022-09-23T00:18:56.035Z,101204.25
2022-09-23T00:21:23.400Z,101201.34
2022-09-23T00:23:50.738Z,101204.47
2022-09-23T00:26:19.719Z,101208.41
2022-09-23T00:28:48.161Z,101206.66
2022-09-23T00:31:21.779Z,101205.44
2022-09-23T00:33:56.889Z,101206.22
2022-09-23T00:36:24.987Z,101199.56
2022-09-23T00:38:52.502Z,101192.88
2022-09-23T00:41:20.137Z,101188.16
2022-09-23T00:43:59.747Z,101190.91
2022-09-23T00:46:37.252Z,101190.13
2022-09-23T00:49:12.813Z,101183.34
2022-09-23T00:51:54.589Z,101190.00
2022-09-23T00:54:24.140Z,101193.13
2022-09-23T00:56:51.659Z,101185.19
2022-09-23T00:59:19.725Z,101173.72
2022-09-23T01:01:48.761Z,101182.44
2022-09-23T01:04:16.318Z,101163.91
2022-09-23T01:06:43.393Z,101165.53
2022-09-23T01:09:10.688Z,101162.78
2022-09-23T01:11:43.414Z,101172.66
2022-09-23T01:14:49.223Z,101169.09
2022-09-23T01:17:49.253Z,101169.78
2022-09-23T01:20:28.192Z,101167.50
2022-09-23T01:23:04.981Z,101165.06
2022-09-23T01:26:15.490Z,101161.88
2022-09-23T01:29:27.410Z,101172.09
2022-09-23T01:32:08.436Z,101164.63
2022-09-23T01:34:47.983Z,101162.69
2022-09-23T01:37:32.132Z,101163.47
2022-09-23T01:40:18.738Z,101158.66
2022-09-23T01:43:05.678Z,101155.44
2022-09-23T01:45:41.617Z,101153.47
2022-09-23T01:48:34.698Z,101156.13
2022-09-23T01:51:08.703Z,101147.84
2022-09-23T01:54:00.741Z,101140.25
2022-09-23T01:56:31.511Z,101142.59
2022-09-23T01:59:17.817Z,101141.31
2022-09-23T02:02:15.531Z,101135.69
2022-09-23T02:05:05.994Z,101121.44
2022-09-23T02:07:46.482Z,101132.59
2022-09-23T02:10:21.825Z,101133.03
2022-09-23T02:12:51.134Z,101130.75
2022-09-23T02:15:23.089Z,101126.03
2022-09-23T02:17:54.177Z,101126.03
2022-09-23T02:20:30.264Z,101126.84
2022-09-23T02:23:19.746Z,101132.47
2022-09-23T02:26:12.374Z,101136.81
2022-09-23T02:29:00.730Z,101137.63
2022-09-23T02:31:55.248Z,101136.91
2022-09-23T02:34:46.949Z,101145.09
2022-09-23T02:37:29.112Z,101140.53
2022-09-23T02:40:23.781Z,101132.59
2022-09-23T02:43:12.719Z,101135.34
2022-09-23T02:45:39.909Z,101131.22
2022-09-23T02:48:14.976Z,101141.28
2022-09-23T02:50:42.826Z,101140.50
2022-09-23T02:53:10.150Z,101152.22
2022-09-23T02:55:37.335Z,101143.63
2022-09-23T02:58:05.661Z,101155.78
2022-09-23T03:00:56.111Z,101156.47
2022-09-23T03:03:47.321Z,101151.31
2022-09-23T03:06:27.820Z,101143.38
2022-09-23T03:09:09.417Z,101139.00
2022-09-23T03:11:40.341Z,101136.63
2022-09-23T03:14:24.040Z,101134.66
2022-09-23T03:17:03.711Z,101148.44
2022-09-23T03:20:07.554Z,101144.09
2022-09-23T03:22:39.655Z,101146.00
2022-09-23T03:25:12.375Z,101144.41
2022-09-23T03:27:42.685Z,101137.31
2022-09-23T03:30:11.077Z,101137.31
2022-09-23T03:32:39.449Z,101144.78
2022-09-23T03:35:07.108Z,101154.66
2022-09-23T03:37:46.725Z,101156.25
2022-09-23T03:40:20.894Z,101162.81
2022-09-23T03:42:49.273Z,101168.06
2022-09-23T03:45:20.683Z,101168.53
2022-09-23T03:47:48.027Z,101168.53
2022-09-23T03:50:17.497Z,101169.00
2022-09-23T03:52:44.825Z,101174.53
2022-09-23T03:55:12.109Z,101173.59
2022-09-23T03:57:39.876Z,101175.06
2022-09-23T04:00:08.252Z,101175.75
2022-09-23T04:02:41.877Z,101177.97
2022-09-23T04:05:12.497Z,101175.91
2022-09-23T04:07:40.577Z,101176.69
2022-09-23T04:10:08.352Z,101170.72
2022-09-23T04:12:35.430Z,101177.84
2022-09-23T04:15:02.564Z,101171.88
2022-09-23T04:17:30.375Z,101178.88
2022-09-23T04:19:57.425Z,101186.34
2022-09-23T04:22:24.754Z,101183.47
2022-09-23T04:24:52.321Z,101179.78
2022-09-23T04:27:19.805Z,101189.06
2022-09-23T04:29:46.906Z,101173.09
2022-09-23T04:32:14.331Z,101178.84
2022-09-23T04:34:41.455Z,101183.44
2022-09-23T04:37:08.717Z,101187.91
2022-09-23T04:39:35.870Z,101187.69
2022-09-23T04:42:04.261Z,101191.81
2022-09-23T04:44:31.410Z,101187.81
2022-09-23T04:46:58.912Z,101185.28
2022-09-23T04:49:26.391Z,101194.50
2022-09-23T04:51:54.514Z,101188.31
2022-09-23T04:54:21.646Z,101197.38
2022-09-23T04:56:48.861Z,101191.50
2022-09-23T04:59:15.994Z,101181.75
2022-09-23T05:01:43.815Z,101183.13
2022-09-23T05:04:13.543Z,101171.88
2022-09-23T05:06:40.722Z,101175.56
2022-09-23T05:09:09.112Z,101178.06
2022-09-23T05:11:36.490Z,101181.19
2022-09-23T05:14:03.904Z,101189.22
2022-09-23T05:16:31.185Z,101199.75
2022-09-23T05:18:58.423Z,101190.19
2022-09-23T05:21:30.468Z,101199.97
2022-09-23T05:24:00.860Z,101211.03
2022-09-23T05:26:31.079Z,101187.84
2022-09-23T05:28:59.152Z,101194.13
2022-09-23T05:31:29.268Z,101176.88
2022-09-23T05:34:02.733Z,101172.03
2022-09-23T05:36:35.592Z,101156.84
2022-09-23T05:39:05.563Z,101175.91
2022-09-23T05:41:34.111Z,101191.72
2022-09-23T05:44:01.601Z,101206.56
2022-09-23T05:46:30.708Z,101191.56
2022-09-23T05:49:02.596Z,101190.28
2022-09-23T05:51:32.680Z,101203.19
2022-09-23T05:54:03.088Z,101205.94
2022-09-23T05:56:31.504Z,101225.28
2022-09-23T05:59:00.737Z,101217.38
2022-09-23T06:01:32.460Z,101222.22
2022-09-23T06:04:01.173Z,101221.91
2022-09-23T06:06:29.759Z,101227.72
2022-09-23T06:08:59.452Z,101226.28
2022-09-23T06:11:27.493Z,101231.41
2022-09-23T06:13:56.198Z,101226.91
2022-09-23T06:16:23.482Z,101237.72
2022-09-23T06:18:50.577Z,101240.19
2022-09-23T06:21:18.630Z,101234.59
2022-09-23T06:23:46.490Z,101242.72
2022-09-23T06:26:15.664Z,101239.16
2022-09-23T06:28:44.271Z,101241.47
2022-09-23T06:31:14.401Z,101227.97
2022-09-23T06:33:43.231Z,101239.13
2022-09-23T06:36:11.509Z,101234.63
2022-09-23T06:38:44.966Z,101239.94
2022-09-23T06:41:13.704Z,101237.28
2022-09-23T06:43:41.070Z,101234.94
2022-09-23T06:46:11.078Z,101250.94
2022-09-23T06:48:40.823Z,101261.75
2022-09-23T06:51:14.014Z,101260.03
2022-09-23T06:53:41.108Z,101261.41
2022-09-23T06:56:11.615Z,101268.34
2022-09-23T06:58:40.234Z,101266.09
2022-09-23T07:01:09.819Z,101280.41
2022-09-23T07:03:37.387Z,101278.81
2022-09-23T07:06:05.993Z,101268.44
2022-09-23T07:08:36.328Z,101286.16
2022-09-23T07:11:06.955Z,101280.53
2022-09-23T07:13:35.124Z,101277.88
2022-09-23T07:16:02.453Z,101288.13
2022-09-23T07:18:36.777Z,101296.16
2022-09-23T07:21:15.583Z,101288.56
2022-09-23T07:23:44.436Z,101301.69
2022-09-23T07:26:12.272Z,101311.97
2022-09-23T07:28:39.940Z,101310.97
2022-09-23T07:31:10.437Z,101313.56
2022-09-23T07:33:40.043Z,101320.69
2022-09-23T07:36:10.605Z,101325.81
2022-09-23T07:38:41.505Z,101333.19
2022-09-23T07:41:13.774Z,101333.97
2022-09-23T07:43:41.510Z,101342.31
2022-09-23T07:46:13.309Z,101340.03
2022-09-23T07:48:42.023Z,101343.44
2022-09-23T07:51:12.513Z,101346.53
2022-09-23T07:53:40.267Z,101357.13
2022-09-23T07:56:07.765Z,101364.56
2022-09-23T07:58:35.271Z,101357.28
2022-09-23T08:01:07.418Z,101362.84
2022-09-23T08:03:35.563Z,101368.19
2022-09-23T08:06:13.743Z,101373.97
2022-09-23T08:08:43.880Z,101369.63
2022-09-23T08:11:14.387Z,101370.34
2022-09-23T08:13:42.656Z,101373.50
2022-09-23T08:16:10.460Z,101368.41
2022-09-23T08:18:37.695Z,101375.88
2022-09-23T08:21:05.014Z,101374.94
2022-09-23T08:23:33.758Z,101374.72
2022-09-23T08:26:04.781Z,101360.69
2022-09-23T08:28:34.001Z,101367.34
2022-09-23T08:31:01.508Z,101352.44
2022-09-23T08:33:29.138Z,101358.63
2022-09-23T08:36:04.917Z,101363.47
2022-09-23T08:38:32.706Z,101373.31
2022-09-23T08:41:23.974Z,101369.63
2022-09-23T08:43:57.953Z,101364.94
2022-09-23T08:46:37.831Z,101347.25
2022-09-23T08:49:07.963Z,101353.19
2022-09-23T08:51:48.749Z,101356.31
2022-09-23T08:54:18.423Z,101360.78
2022-09-23T08:56:51.492Z,101357.00
2022-09-23T08:59:32.254Z,101353.25
2022-09-23T09:07:31.826Z,101358.63
2022-09-23T09:10:21.477Z,101362.88
2022-09-23T09:12:54.307Z,101365.44
2022-09-23T09:15:25.205Z,101363.88
2022-09-23T09:18:11.437Z,101360.78
2022-09-23T09:20:48.323Z,101368.47
2022-09-23T09:23:36.517Z,101372.06
2022-09-23T09:26:06.041Z,101378.72
2022-09-23T09:28:41.929Z,101379.34
2022-09-23T09:31:15.197Z,101372.06
2022-09-23T09:33:58.093Z,101375.88
2022-09-23T09:36:54.213Z,101369.06
2022-09-23T09:39:25.529Z,101370.28
2022-09-23T09:41:55.644Z,101366.44
2022-09-23T09:44:48.240Z,101368.13
2022-09-23T09:47:56.920Z,101383.72
2022-09-23T09:50:50.128Z,101370.63
2022-09-23T09:53:29.595Z,101378.78
2022-09-23T09:56:05.234Z,101375.03
2022-09-23T09:58:56.639Z,101376.53
2022-09-23T10:01:37.441Z,101370.47
2022-09-23T10:04:19.958Z,101380.59
2022-09-23T10:07:07.601Z,101370.38
2022-09-23T10:09:39.324Z,101388.72
2022-09-23T10:12:18.761Z,101384.84
2022-09-23T10:14:51.777Z,101392.00
2022-09-23T10:17:23.070Z,101392.97
2022-09-23T10:20:02.413Z,101391.09
2022-09-23T10:22:37.611Z,101404.06
2022-09-23T10:25:10.427Z,101402.94
2022-09-23T10:27:38.983Z,101404.97
2022-09-23T10:30:24.633Z,101410.31
2022-09-23T10:32:55.142Z,101411.81
2022-09-23T10:35:24.664Z,101420.50
2022-09-23T10:37:56.947Z,101414.88
2022-09-23T10:40:51.133Z,101411.31
2022-09-23T10:44:16.991Z,101404.38
2022-09-23T10:47:14.751Z,101417.38
2022-09-23T10:50:11.459Z,101411.31
2022-09-23T10:52:52.723Z,101413.81
2022-09-23T10:55:47.035Z,101414.69
2022-09-23T10:58:26.002Z,101412.69
2022-09-23T11:01:05.613Z,101398.97
2022-09-23T11:03:50.975Z,101409.50
2022-09-23T11:06:47.623Z,101410.78
2022-09-23T11:09:42.644Z,101399.91
2022-09-23T11:12:35.666Z,101400.06
2022-09-23T11:15:11.899Z,101404.84
2022-09-23T11:17:48.440Z,101405.09
2022-09-23T11:20:27.985Z,101406.16
2022-09-23T11:23:22.515Z,101396.00
2022-09-23T11:26:21.987Z,101402.59
2022-09-23T11:29:24.349Z,101406.16
2022-09-23T11:32:03.684Z,101400.88
2022-09-23T11:34:51.206Z,101398.09
2022-09-23T11:37:27.718Z,101400.03
2022-09-23T11:40:19.853Z,101390.66
2022-09-23T11:43:00.057Z,101387.59
2022-09-23T11:46:02.197Z,101403.72
2022-09-23T11:48:48.265Z,101403.00
2022-09-23T11:51:38.298Z,101397.25
2022-09-23T11:54:28.714Z,101406.63
2022-09-23T11:57:01.693Z,101389.19
2022-09-23T11:59:40.574Z,101397.84
2022-09-23T12:02:20.728Z,101392.13
2022-09-23T12:05:03.125Z,101392.22
2022-09-23T12:07:54.915Z,101387.28
2022-09-23T12:10:23.920Z,101393.22
2022-09-23T12:13:07.449Z,101381.75
2022-09-23T12:15:42.951Z,101392.13
2022-09-23T12:18:28.520Z,101389.22
2022-09-23T12:21:49.046Z,101389.78
2022-09-23T12:24:55.918Z,101399.28
2022-09-23T12:27:32.144Z,101392.63
2022-09-23T12:30:03.677Z,101383.59
2022-09-23T12:32:31.854Z,101386.94
2022-09-23T12:35:00.724Z,101387.16
2022-09-23T12:37:37.393Z,101394.63
2022-09-23T12:40:31.322Z,101386.38
2022-09-23T12:43:02.631Z,101390.97
2022-09-23T12:45:33.972Z,101389.28
2022-09-23T12:48:25.623Z,101388.34
2022-09-23T12:51:18.754Z,101385.19
2022-09-23T12:53:52.748Z,101383.66
2022-09-23T12:56:32.433Z,101380.88
2022-09-23T12:59:20.674Z,101384.75
2022-09-23T13:01:48.630Z,101382.34
2022-09-23T13:04:46.309Z,101381.91
2022-09-23T13:07:23.737Z,101386.56
2022-09-23T13:09:53.884Z,101384.53
2022-09-23T13:12:29.469Z,101384.59
2022-09-23T13:15:00.907Z,101383.75
2022-09-23T13:17:36.498Z,101380.72
2022-09-23T13:20:19.777Z,101384.91
2022-09-23T13:22:50.278Z,101375.44
2022-09-23T13:25:29.893Z,101377.22
2022-09-23T13:28:01.848Z,101378.06
2022-09-23T13:30:29.179Z,101378.06
2022-09-23T13:33:12.886Z,101377.41
2022-09-23T13:35:45.032Z,101374.19
2022-09-23T13:38:21.314Z,101374.63
2022-09-23T13:40:49.472Z,101382.84
2022-09-23T13:43:25.552Z,101383.81
2022-09-23T13:45:53.057Z,101382.28
2022-09-23T13:48:24.084Z,101375.94
2022-09-23T13:50:56.311Z,101374.28
2022-09-23T13:53:33.198Z,101369.53
2022-09-23T13:56:03.949Z,101373.03
2022-09-23T13:58:32.895Z,101367.34
2022-09-23T14:01:01.561Z,101376.44
2022-09-23T14:03:40.245Z,101378.25
2022-09-23T14:06:15.216Z,101368.47
2022-09-23T14:08:46.471Z,101371.03
2022-09-23T14:11:37.447Z,101376.59
2022-09-23T14:14:08.157Z,101371.38
2022-09-23T14:16:41.096Z,101372.81
2022-09-23T14:19:17.042Z,101374.56
2022-09-23T14:21:47.919Z,101380.19
2022-09-23T14:24:31.021Z,101379.50
2022-09-23T14:27:04.088Z,101380.81
2022-09-23T14:29:34.341Z,101376.28
2022-09-23T14:32:05.763Z,101374.31
2022-09-23T14:34:53.258Z,101375.78
2022-09-23T14:37:39.045Z,101370.31
2022-09-23T14:40:14.402Z,101383.38
2022-09-23T14:42:46.616Z,101373.50
2022-09-23T14:45:25.631Z,101377.44
2022-09-23T14:48:00.125Z,101369.78
2022-09-23T14:50:47.806Z,101370.41
2022-09-23T14:53:27.137Z,101374.78
2022-09-23T14:56:00.243Z,101368.44
2022-09-23T14:58:28.912Z,101371.28
2022-09-23T15:01:01.092Z,101367.28
2022-09-23T15:03:29.263Z,101369.97
2022-09-23T15:06:08.492Z,101370.59
2022-09-23T15:08:38.531Z,101365.97
2022-09-23T15:11:09.679Z,101359.09
2022-09-23T15:13:44.711Z,101371.66
2022-09-23T15:16:15.807Z,101376.84
2022-09-23T15:18:47.001Z,101367.66
2022-09-23T15:21:22.093Z,101369.25
2022-09-23T15:23:56.894Z,101370.16
2022-09-23T15:26:45.133Z,101364.97
2022-09-23T15:29:12.335Z,101368.97
2022-09-23T15:31:39.584Z,101376.91
2022-09-23T15:34:06.880Z,101372.91
2022-09-23T15:36:35.168Z,101383.19
2022-09-23T15:39:04.284Z,101383.91
2022-09-23T15:41:33.768Z,101378.63
2022-09-23T15:44:22.086Z,101381.28
2022-09-23T15:46:52.093Z,101380.84
2022-09-23T15:49:47.455Z,101386.66
2022-09-23T15:52:16.123Z,101374.69
2022-09-23T15:54:46.550Z,101382.63
2022-09-23T15:57:13.835Z,101383.09
2022-09-23T15:59:41.234Z,101387.00
2022-09-23T16:02:18.509Z,101388.41
2022-09-23T16:04:50.645Z,101392.16
2022-09-23T16:07:19.894Z,101394.91
2022-09-23T16:09:47.047Z,101383.41
2022-09-23T16:12:14.821Z,101391.97
2022-09-23T16:14:41.918Z,101387.69
2022-09-23T16:17:13.449Z,101395.53
2022-09-23T16:19:40.622Z,101390.63
2022-09-23T16:22:07.941Z,101389.25
2022-09-23T16:24:35.180Z,101391.78
2022-09-23T16:27:07.976Z,101386.25
2022-09-23T16:29:35.270Z,101383.41
2022-09-23T16:32:02.695Z,101380.53
2022-09-23T16:34:30.008Z,101382.84
2022-09-23T16:36:57.484Z,101390.25
2022-09-23T16:39:24.836Z,101394.59
2022-09-23T16:41:52.878Z,101402.34
2022-09-23T16:44:21.375Z,101392.81
2022-09-23T16:46:48.531Z,101397.06
2022-09-23T16:49:15.824Z,101394.31
2022-09-23T16:51:43.384Z,101399.03
2022-09-23T16:54:12.480Z,101408.13
2022-09-23T16:56:45.428Z,101408.91
2022-09-23T16:59:13.555Z,101409.72
2022-09-23T17:01:59.706Z,101411.59
2022-09-23T17:04:27.909Z,101413.06
2022-09-23T17:06:56.139Z,101415.84
2022-09-23T17:09:26.446Z,101419.78
2022-09-23T17:12:27.959Z,101421.25
2022-09-23T17:14:55.613Z,101426.09
2022-09-23T17:17:22.881Z,101410.69
2022-09-23T17:19:49.984Z,101421.25
2022-09-23T17:22:17.167Z,101420.56
2022-09-23T17:24:44.268Z,101425.75
2022-09-23T17:27:11.580Z,101420.94
2022-09-23T17:29:38.680Z,101430.13
2022-09-23T17:32:05.798Z,101437.25
2022-09-23T17:34:33.639Z,101430.56
2022-09-23T17:37:01.124Z,101442.56
2022-09-23T17:39:28.583Z,101449.69
2022-09-23T17:41:58.739Z,101437.03
2022-09-23T17:44:26.655Z,101443.47
2022-09-23T17:46:53.987Z,101447.38
2022-09-23T17:49:24.284Z,101449.56
2022-09-23T17:51:51.552Z,101448.50
2022-09-23T17:54:18.761Z,101444.56
2022-09-23T17:56:45.919Z,101452.63
2022-09-23T17:59:13.249Z,101444.66
2022-09-23T18:01:40.580Z,101447.78
2022-09-23T18:04:07.833Z,101452.63
2022-09-23T18:06:36.238Z,101452.63
2022-09-23T18:09:06.316Z,101454.00
2022-09-23T18:11:37.022Z,101460.56
2022-09-23T18:14:15.540Z,101469.09
2022-09-23T18:16:44.737Z,101469.00
2022-09-23T18:19:14.391Z,101472.47
2022-09-23T18:21:48.079Z,101476.63
2022-09-23T18:27:02.873Z,101485.66
2022-09-23T18:29:30.331Z,101485.78
2022-09-23T18:31:59.009Z,101492.22
2022-09-23T18:34:26.260Z,101497.41
2022-09-23T18:36:56.279Z,101490.47
2022-09-23T18:39:23.634Z,101506.13
2022-09-23T18:41:51.248Z,101504.94
2022-09-23T18:44:20.139Z,101510.09
2022-09-23T18:46:47.351Z,101506.28
2022-09-23T18:49:33.042Z,101519.72
2022-09-23T18:52:00.251Z,101525.31
2022-09-23T18:54:29.183Z,101520.03
2022-09-23T18:56:57.674Z,101516.00
2022-09-23T18:59:29.181Z,101524.94
2022-09-23T19:01:57.612Z,101523.34
2022-09-23T19:04:26.686Z,101522.88
2022-09-23T19:06:56.659Z,101526.31
2022-09-23T19:09:24.071Z,101536.53
2022-09-23T19:11:52.675Z,101536.06
2022-09-23T19:14:20.614Z,101540.63
2022-09-23T19:16:49.353Z,101549.09
2022-09-23T19:19:16.730Z,101547.38
2022-09-23T19:21:43.935Z,101550.00
2022-09-23T19:24:15.823Z,101558.28
2022-09-23T19:26:44.262Z,101556.66
2022-09-23T19:29:15.800Z,101558.09
2022-09-23T19:31:43.600Z,101558.09
2022-09-23T19:34:18.023Z,101567.69
2022-09-23T19:36:47.231Z,101566.38
2022-09-23T19:39:25.295Z,101572.56
2022-09-23T19:41:56.184Z,101566.25
2022-09-23T19:44:25.363Z,101568.19
2022-09-23T19:46:56.324Z,101568.06
2022-09-23T19:49:25.481Z,101568.59
2022-09-23T19:51:56.239Z,101571.19
2022-09-23T19:54:26.749Z,101575.31
2022-09-23T19:56:54.223Z,101579.41
2022-09-23T19:59:21.409Z,101582.97
2022-09-23T20:01:49.282Z,101578.13
2022-09-23T20:04:16.989Z,101580.75
2022-09-23T20:06:46.202Z,101587.72
2022-09-23T20:09:13.849Z,101590.34
2022-09-23T20:11:43.335Z,101592.59
2022-09-23T20:14:11.283Z,101590.19
2022-09-23T20:16:38.807Z,101587.09
2022-09-23T20:19:06.487Z,101595.69
2022-09-23T20:21:34.445Z,101596.00
2022-09-23T20:24:02.580Z,101602.69
2022-09-23T20:26:48.047Z,101599.47
2022-09-23T20:29:15.354Z,101596.72
2022-09-23T20:31:42.711Z,101601.88
2022-09-23T20:34:11.054Z,101607.88
2022-09-23T20:36:41.545Z,101608.00
2022-09-23T20:39:10.305Z,101611.22
2022-09-23T20:41:39.570Z,101611.22
2022-09-23T20:44:13.108Z,101608.31
2022-09-23T20:46:46.751Z,101614.03
2022-09-23T20:49:16.382Z,101622.16
2022-09-23T20:51:43.556Z,101617.63
2022-09-23T20:54:12.246Z,101625.44
2022-09-23T20:56:39.547Z,101623.63
2022-09-23T20:59:06.945Z,101625.72
2022-09-23T21:01:35.963Z,101630.75
2022-09-23T21:04:06.024Z,101630.75
2022-09-23T21:06:35.631Z,101633.69
2022-09-23T21:09:03.448Z,101635.31
2022-09-23T21:11:32.262Z,101640.34
2022-09-23T21:14:00.607Z,101640.19
2022-09-23T21:16:28.594Z,101638.44
2022-09-23T21:18:55.786Z,101638.28
2022-09-23T21:21:23.009Z,101637.31
2022-09-23T21:23:51.276Z,101641.22
2022-09-23T21:26:21.092Z,101640.75
2022-09-23T21:28:53.099Z,101636.69
2022-09-23T21:31:23.554Z,101638.81
2022-09-23T21:34:04.265Z,101644.94
2022-09-23T21:36:33.802Z,101644.13
2022-09-23T21:39:04.658Z,101644.44
2022-09-23T21:41:32.561Z,101651.09
2022-09-23T21:44:00.871Z,101642.38
2022-09-23T21:46:29.084Z,101650.63
2022-09-23T21:48:57.655Z,101645.13
2022-09-23T21:51:29.842Z,101649.34
2022-09-23T21:53:58.546Z,101646.91
2022-09-23T21:56:31.520Z,101654.69
2022-09-23T21:59:00.147Z,101662.16
2022-09-23T22:01:29.934Z,101662.16
2022-09-23T22:03:59.293Z,101662.97
2022-09-23T22:06:28.649Z,101662.47
2022-09-23T22:08:59.964Z,101656.97
2022-09-23T22:11:51.539Z,101660.06
2022-09-23T22:14:21.079Z,101660.06
2022-09-23T22:16:48.355Z,101658.41
2022-09-23T22:19:15.791Z,101652.91
2022-09-23T22:21:45.664Z,101658.56
2022-09-23T22:24:13.357Z,101654.84
2022-09-23T22:26:43.228Z,101666.16
2022-09-23T22:29:32.838Z,101656.97
2022-09-23T22:32:20.352Z,101658.25
2022-09-23T22:34:52.551Z,101657.94
2022-09-23T22:37:34.320Z,101662.50
2022-09-23T22:40:06.080Z,101658.44
2022-09-23T22:42:33.645Z,101654.09
2022-09-23T22:45:00.859Z,101658.28
2022-09-23T22:47:28.102Z,101655.69
2022-09-23T22:49:55.691Z,101659.59
2022-09-23T22:52:24.732Z,101664.59
2022-09-23T22:54:52.704Z,101662.97
2022-09-23T22:57:20.324Z,101662.34
2022-09-23T22:59:50.682Z,101667.34
2022-09-23T23:02:20.256Z,101664.59
2022-09-23T23:04:48.542Z,101666.88
2022-09-23T23:07:21.935Z,101671.06
2022-09-23T23:09:52.671Z,101672.69
2022-09-23T23:12:20.755Z,101671.06
2022-09-23T23:14:49.428Z,101672.22
2022-09-23T23:17:17.788Z,101681.78
2022-09-23T23:19:45.269Z,101678.69
2022-09-23T23:22:12.492Z,101671.25
2022-09-23T23:24:40.029Z,101667.34
2022-09-23T23:27:07.205Z,101668.19
2022-09-23T23:29:34.364Z,101672.03
2022-09-23T23:32:01.872Z,101662.50
2022-09-23T23:34:28.969Z,101662.81
2022-09-23T23:36:56.179Z,101664.78
2022-09-23T23:39:24.910Z,101673.03
2022-09-23T23:41:56.455Z,101660.72
2022-09-23T23:44:25.538Z,101665.41
2022-09-23T23:46:53.837Z,101667.19
2022-09-23T23:49:21.719Z,101669.94
2022-09-23T23:51:49.038Z,101659.41
2022-09-23T23:54:16.513Z,101661.88
2022-09-23T23:56:43.628Z,101661.06
2022-09-23T23:59:10.932Z,101654.72
